Time;durP1;ratioP1;P1;durP2;ratioP2;P2;SDS_P1;SDS_P2;PMS_P1;PMS_P2;Temp;Humidity;BMP_temperature;BMP_pressure;BME280_temperature;BME280_humidity;BME280_pressure;Samples;Min_cycle;Max_cycle;Signal;HPM_P1;HPM_P2
2024/01/24 00:02:01;;;;;;;13.20;9.00;;;8.30;95.90;;;;;;5077579;28;20552;-88
2024/01/24 00:04:26;;;;;;;9.97;8.97;;;8.40;95.90;;;;;;5077355;28;20669;-88
2024/01/24 00:06:52;;;;;;;12.80;9.90;;;8.40;95.90;;;;;;5077541;28;20201;-88
2024/01/24 00:09:17;;;;;;;9.40;8.53;;;8.40;96.00;;;;;;5077690;28;20167;-88
2024/01/24 00:11:43;;;;;;;10.33;9.43;;;8.50;96.10;;;;;;5095517;28;20250;-88
2024/01/24 00:14:10;;;;;;;12.63;10.33;;;8.60;96.10;;;;;;5077450;28;20182;-88
2024/01/24 00:16:36;;;;;;;16.03;8.73;;;8.60;96.10;;;;;;5076940;28;20573;-87
2024/01/24 00:19:01;;;;;;;15.03;10.97;;;8.80;96.20;;;;;;5076999;28;20190;-88
2024/01/24 00:21:27;;;;;;;11.43;10.13;;;8.70;96.20;;;;;;5076987;28;20293;-89
2024/01/24 00:23:52;;;;;;;13.20;12.00;;;8.80;96.20;;;;;;5076766;28;20214;-89
2024/01/24 00:26:18;;;;;;;9.17;8.27;;;9.00;96.40;;;;;;5077597;28;20201;-89
2024/01/24 00:28:43;;;;;;;10.10;8.80;;;9.00;96.30;;;;;;5077138;28;20650;-89
2024/01/24 00:31:09;;;;;;;12.43;11.23;;;9.00;96.40;;;;;;5076814;28;20181;-89
2024/01/24 00:33:34;;;;;;;8.73;7.97;;;9.00;96.30;;;;;;5094924;28;20181;-89
2024/01/24 00:36:00;;;;;;;10.93;9.90;;;9.10;96.40;;;;;;5094754;28;20206;-88
2024/01/24 00:38:26;;;;;;;12.03;10.83;;;9.10;96.50;;;;;;5076548;28;20178;-89
2024/01/24 00:40:51;;;;;;;10.93;9.50;;;9.20;96.50;;;;;;5076490;28;20255;-89
2024/01/24 00:43:17;;;;;;;13.33;11.93;;;9.20;96.50;;;;;;5094786;28;20245;-89
2024/01/24 00:45:42;;;;;;;12.03;8.73;;;9.20;96.60;;;;;;5076789;28;20273;-89
2024/01/24 00:48:08;;;;;;;12.40;8.70;;;9.30;96.60;;;;;;5076423;28;20175;-88
2024/01/24 00:50:34;;;;;;;11.03;9.93;;;9.30;96.60;;;;;;5076608;28;20683;-88
2024/01/24 00:53:04;;;;;;;11.30;9.47;;;9.30;96.60;;;;;;5095746;28;20171;-88
2024/01/24 00:55:30;;;;;;;9.67;8.43;;;9.30;96.60;;;;;;5076389;28;20183;-88
2024/01/24 00:57:58;;;;;;;10.97;9.83;;;9.40;96.60;;;;;;5094281;28;20677;-87
2024/01/24 01:00:26;;;;;;;12.10;9.40;;;9.50;96.70;;;;;;5076171;28;20319;-88
2024/01/24 01:02:52;;;;;;;8.97;7.90;;;9.50;96.60;;;;;;5076114;28;20638;-88
2024/01/24 01:05:17;;;;;;;8.07;7.30;;;9.60;96.70;;;;;;5094222;28;20174;-88
2024/01/24 01:07:43;;;;;;;9.33;8.40;;;9.80;96.80;;;;;;5075908;28;20198;-88
2024/01/24 01:10:09;;;;;;;9.37;8.47;;;9.80;96.70;;;;;;5093990;28;20175;-88
2024/01/24 01:12:35;;;;;;;8.60;7.80;;;9.80;96.70;;;;;;5075384;28;20236;-88
2024/01/24 01:15:00;;;;;;;10.20;8.20;;;9.80;96.60;;;;;;5076023;28;20634;-88
2024/01/24 01:17:26;;;;;;;8.57;7.77;;;9.80;96.70;;;;;;5076085;28;20216;-88
2024/01/24 01:19:51;;;;;;;5.43;4.93;;;9.80;96.70;;;;;;5075747;28;20231;-88
2024/01/24 01:22:18;;;;;;;7.80;7.10;;;9.90;96.70;;;;;;5075862;28;20178;-88
2024/01/24 01:24:43;;;;;;;6.43;5.83;;;9.90;96.60;;;;;;5093670;28;20294;-88
2024/01/24 01:27:09;;;;;;;8.43;7.50;;;9.90;96.60;;;;;;5093750;28;20274;-89
2024/01/24 01:29:34;;;;;;;6.63;6.03;;;9.90;96.60;;;;;;5093644;28;20166;-88
2024/01/24 01:32:06;;;;;;;5.20;4.77;;;10.10;96.60;;;;;;5075656;28;20200;-88
2024/01/24 01:34:32;;;;;;;5.27;4.73;;;10.10;96.50;;;;;;5075654;28;20327;-88
2024/01/24 01:36:57;;;;;;;5.27;4.77;;;10.20;96.50;;;;;;5075476;28;20244;-88
2024/01/24 01:39:23;;;;;;;5.93;5.00;;;10.10;96.40;;;;;;5075624;28;20251;-88
2024/01/24 01:41:48;;;;;;;5.20;4.70;;;10.30;96.50;;;;;;5093492;28;20174;-88
2024/01/24 01:44:15;;;;;;;3.80;3.50;;;10.30;96.40;;;;;;5076197;28;20256;-88
2024/01/24 01:46:42;;;;;;;3.33;3.13;;;10.30;96.30;;;;;;5093528;28;20234;-88
2024/01/24 01:49:07;;;;;;;4.10;3.80;;;10.30;96.40;;;;;;5075550;28;20171;-88
2024/01/24 01:51:34;;;;;;;4.67;4.27;;;10.30;96.30;;;;;;5076107;28;20194;-88
2024/01/24 01:54:00;;;;;;;4.90;4.50;;;10.30;96.30;;;;;;5093395;28;20177;-88
2024/01/24 01:56:26;;;;;;;4.33;3.93;;;10.40;96.20;;;;;;5093280;28;20221;-88
2024/01/24 01:58:52;;;;;;;5.23;4.73;;;10.40;96.20;;;;;;5075322;28;20650;-88
2024/01/24 02:01:19;;;;;;;5.30;4.80;;;10.40;96.20;;;;;;5093494;28;20523;-88
2024/01/24 02:03:45;;;;;;;6.90;6.40;;;10.40;96.20;;;;;;5075075;28;20243;-88
2024/01/24 02:06:11;;;;;;;7.30;6.47;;;10.40;96.20;;;;;;5075351;28;20191;-88
2024/01/24 02:08:39;;;;;;;7.20;6.70;;;10.50;96.20;;;;;;5075319;28;20175;-88
2024/01/24 02:11:05;;;;;;;6.33;5.93;;;10.60;96.00;;;;;;5075205;28;20170;-88
2024/01/24 02:13:31;;;;;;;6.83;6.33;;;10.80;96.00;;;;;;5075081;28;20265;-88
2024/01/24 02:16:01;;;;;;;6.30;5.90;;;10.80;96.00;;;;;;5075055;28;20191;-88
2024/01/24 02:18:27;;;;;;;7.20;6.70;;;10.70;95.80;;;;;;5075195;28;20182;-88
2024/01/24 02:20:53;;;;;;;6.97;6.47;;;10.70;95.80;;;;;;5075048;28;20175;-88
2024/01/24 02:23:25;;;;;;;6.60;6.20;;;10.80;95.80;;;;;;5093117;28;20190;-88
2024/01/24 02:25:51;;;;;;;6.73;6.30;;;10.80;95.90;;;;;;5095729;28;20627;-88
2024/01/24 02:28:17;;;;;;;7.67;6.87;;;10.90;95.90;;;;;;5097204;28;20665;-88
2024/01/24 02:30:42;;;;;;;5.70;5.30;;;10.80;95.80;;;;;;5078942;28;20171;-88
2024/01/24 02:33:08;;;;;;;6.40;5.90;;;11.00;96.00;;;;;;5078947;28;20205;-88
2024/01/24 02:35:34;;;;;;;3.50;3.20;;;11.10;95.90;;;;;;5078806;28;20274;-88
2024/01/24 02:38:00;;;;;;;3.57;2.97;;;11.20;95.60;;;;;;5097041;28;20166;-88
2024/01/24 02:40:26;;;;;;;3.17;3.07;;;11.30;94.90;;;;;;5078790;28;20179;-89
2024/01/24 02:42:51;;;;;;;3.80;3.50;;;11.30;94.80;;;;;;5078871;28;20298;-88
2024/01/24 02:45:17;;;;;;;3.37;3.17;;;11.30;94.60;;;;;;5078727;28;20179;-88
2024/01/24 02:47:42;;;;;;;3.80;3.50;;;11.40;94.40;;;;;;5078998;28;20197;-88
2024/01/24 02:50:09;;;;;;;3.80;3.57;;;11.30;94.00;;;;;;5096852;28;20173;-88
2024/01/24 02:52:34;;;;;;;3.63;3.43;;;11.30;94.00;;;;;;5096705;28;20174;-88
2024/01/24 02:55:00;;;;;;;3.53;3.30;;;11.30;94.20;;;;;;5078421;28;20554;-88
2024/01/24 02:57:26;;;;;;;5.47;4.00;;;11.40;94.00;;;;;;5078370;28;20190;-88
2024/01/24 02:59:51;;;;;;;3.17;2.97;;;11.20;94.10;;;;;;5096579;28;20253;-89
2024/01/24 03:02:17;;;;;;;4.93;3.70;;;11.10;94.60;;;;;;5078355;28;20185;-88
2024/01/24 03:04:42;;;;;;;2.87;2.63;;;11.10;94.90;;;;;;5078144;28;20293;-89
2024/01/24 03:07:08;;;;;;;6.13;3.50;;;11.10;95.20;;;;;;5078275;28;20286;-89
2024/01/24 03:09:34;;;;;;;3.13;2.93;;;11.00;95.40;;;;;;5096569;28;20190;-89
2024/01/24 03:11:59;;;;;;;2.93;2.73;;;11.00;95.60;;;;;;5096323;28;20198;-89
2024/01/24 03:14:25;;;;;;;2.80;2.70;;;11.10;95.80;;;;;;5078234;28;20261;-89
2024/01/24 03:16:50;;;;;;;3.03;2.83;;;11.10;95.90;;;;;;5096194;28;20191;-89
2024/01/24 03:19:16;;;;;;;2.97;2.77;;;11.10;96.00;;;;;;5078139;28;20174;-89
2024/01/24 03:21:43;;;;;;;3.47;3.17;;;11.10;96.00;;;;;;5078238;28;20647;-89
2024/01/24 03:24:08;;;;;;;5.53;3.30;;;11.00;96.00;;;;;;5078305;28;20230;-88
2024/01/24 03:26:34;;;;;;;5.97;3.30;;;11.30;95.10;;;;;;5078480;28;20561;-88
2024/01/24 03:28:59;;;;;;;5.53;3.77;;;11.30;94.70;;;;;;5096485;28;20618;-88
2024/01/24 03:31:25;;;;;;;8.00;6.03;;;11.20;93.70;;;;;;5096207;28;20257;-88
2024/01/24 03:33:51;;;;;;;11.23;6.53;;;11.20;92.20;;;;;;5096100;28;20175;-88
2024/01/24 03:36:17;;;;;;;6.23;5.87;;;11.20;91.30;;;;;;5095349;28;20222;-88
2024/01/24 03:38:43;;;;;;;10.13;7.27;;;11.30;90.80;;;;;;5095923;28;20552;-88
2024/01/24 03:41:09;;;;;;;8.90;8.23;;;11.20;90.50;;;;;;5095830;28;20171;-87
2024/01/24 03:43:39;;;;;;;8.93;8.23;;;11.20;89.50;;;;;;5077788;28;20206;-87
2024/01/24 03:46:04;;;;;;;9.37;8.60;;;11.30;89.40;;;;;;5077962;28;20680;-87
2024/01/24 03:48:30;;;;;;;9.00;7.97;;;11.30;88.90;;;;;;5077658;28;20197;-87
2024/01/24 03:50:55;;;;;;;9.20;8.30;;;11.30;89.00;;;;;;5077519;28;20171;-87
2024/01/24 03:53:21;;;;;;;12.57;9.03;;;11.30;89.00;;;;;;5077578;28;20179;-87
2024/01/24 03:55:46;;;;;;;10.57;9.67;;;11.30;88.80;;;;;;5077409;28;20189;-87
2024/01/24 03:58:12;;;;;;;14.33;10.50;;;11.30;88.50;;;;;;5077400;28;20228;-87
2024/01/24 04:00:37;;;;;;;10.70;9.80;;;11.30;88.10;;;;;;5077311;28;20174;-87
2024/01/24 04:03:03;;;;;;;11.87;10.97;;;11.10;88.40;;;;;;5077104;28;20206;-87
2024/01/24 04:05:29;;;;;;;12.63;10.73;;;11.30;87.70;;;;;;5077230;28;20167;-87
2024/01/24 04:07:55;;;;;;;16.40;11.20;;;11.20;88.10;;;;;;5077466;28;20190;-87
2024/01/24 04:10:20;;;;;;;14.50;10.13;;;11.00;88.60;;;;;;5095113;28;20171;-87
2024/01/24 04:12:46;;;;;;;13.83;9.30;;;11.10;88.60;;;;;;5077129;28;20194;-87
2024/01/24 04:15:11;;;;;;;10.27;9.23;;;11.10;88.90;;;;;;5076965;28;20182;-87
2024/01/24 04:17:37;;;;;;;12.00;9.83;;;11.20;88.70;;;;;;5095023;28;20319;-88
2024/01/24 04:20:03;;;;;;;8.43;7.63;;;11.20;89.40;;;;;;5076991;28;20171;-88
2024/01/24 04:22:28;;;;;;;7.73;7.03;;;11.00;90.20;;;;;;5076933;28;20175;-87
2024/01/24 04:24:54;;;;;;;8.90;6.87;;;11.00;90.70;;;;;;5076938;28;20198;-87
2024/01/24 04:27:19;;;;;;;8.77;6.43;;;11.00;90.80;;;;;;5076740;28;20222;-88
2024/01/24 04:29:45;;;;;;;10.37;6.43;;;11.00;91.30;;;;;;5076734;28;20197;-87
2024/01/24 04:32:10;;;;;;;7.97;6.60;;;10.80;91.50;;;;;;5077168;28;20258;-88
2024/01/24 04:34:36;;;;;;;8.37;6.40;;;10.80;91.60;;;;;;5076613;28;20177;-87
2024/01/24 04:37:02;;;;;;;11.10;8.00;;;10.80;91.10;;;;;;5094605;28;20643;-87
2024/01/24 04:39:27;;;;;;;10.73;7.90;;;11.00;90.00;;;;;;5076471;28;20182;-87
2024/01/24 04:41:53;;;;;;;16.87;8.20;;;10.80;90.00;;;;;;5094898;28;20212;-87
2024/01/24 04:44:19;;;;;;;16.00;7.67;;;10.70;90.40;;;;;;5076553;28;20205;-87
2024/01/24 04:46:44;;;;;;;12.70;7.93;;;10.70;90.50;;;;;;5076257;28;20201;-87
2024/01/24 04:49:11;;;;;;;9.93;8.03;;;10.80;90.50;;;;;;5094098;28;20171;-87
2024/01/24 04:51:37;;;;;;;15.10;10.10;;;10.70;90.40;;;;;;5076365;28;20552;-87
2024/01/24 04:54:03;;;;;;;18.37;9.57;;;10.80;90.00;;;;;;5076386;28;20174;-87
2024/01/24 04:56:29;;;;;;;24.37;9.90;;;10.70;89.90;;;;;;5076111;28;20199;-87
2024/01/24 04:58:54;;;;;;;18.20;10.63;;;10.80;89.20;;;;;;5076087;28;20182;-87
2024/01/24 05:01:20;;;;;;;20.57;12.33;;;10.70;89.30;;;;;;5076188;28;20177;-87
2024/01/24 05:03:46;;;;;;;23.97;13.57;;;10.80;88.30;;;;;;5075902;28;20206;-87
2024/01/24 05:06:12;;;;;;;16.63;14.40;;;10.70;88.40;;;;;;5076243;28;20191;-87
2024/01/24 05:08:38;;;;;;;20.20;15.20;;;10.80;87.30;;;;;;5094183;28;20170;-86
2024/01/24 05:11:04;;;;;;;23.03;17.67;;;10.90;86.50;;;;;;5076038;28;20178;-88
2024/01/24 05:13:30;;;;;;;25.47;16.17;;;11.00;85.50;;;;;;5094052;28;20166;-87
2024/01/24 05:15:55;;;;;;;28.13;17.20;;;10.90;85.60;;;;;;5093969;28;20182;-87
2024/01/24 05:18:21;;;;;;;28.87;17.67;;;10.90;85.30;;;;;;5075865;28;20228;-87
2024/01/24 05:20:47;;;;;;;33.60;19.13;;;10.90;84.60;;;;;;5076132;28;20175;-87
2024/01/24 05:23:12;;;;;;;19.57;17.33;;;11.00;84.00;;;;;;5075717;28;20618;-87
2024/01/24 05:25:39;;;;;;;19.30;17.27;;;10.90;84.10;;;;;;5093840;28;20175;-87
2024/01/24 05:28:05;;;;;;;22.93;18.60;;;11.00;83.10;;;;;;5093888;28;20167;-88
2024/01/24 05:30:31;;;;;;;27.30;20.63;;;11.00;82.40;;;;;;5093853;28;20224;-87
2024/01/24 05:32:57;;;;;;;28.80;19.30;;;11.10;82.40;;;;;;5075583;28;20171;-87
2024/01/24 05:35:23;;;;;;;27.07;19.20;;;11.00;83.30;;;;;;5093798;28;20529;-87
2024/01/24 05:37:49;;;;;;;32.77;29.20;;;11.10;82.60;;;;;;5093574;28;20187;-87
2024/01/24 05:40:14;;;;;;;39.20;29.40;;;11.00;83.10;;;;;;5075640;28;20536;-87
2024/01/24 05:42:40;;;;;;;31.10;28.43;;;10.80;83.60;;;;;;5093560;28;20194;-87
2024/01/24 05:45:06;;;;;;;36.57;28.13;;;11.00;83.10;;;;;;5075468;28;20609;-87
2024/01/24 05:47:32;;;;;;;36.27;27.17;;;10.80;84.00;;;;;;5093437;28;20678;-87
2024/01/24 05:49:58;;;;;;;29.30;26.30;;;10.90;83.50;;;;;;5075506;28;20665;-87
2024/01/24 05:52:24;;;;;;;33.57;27.73;;;10.90;83.60;;;;;;5075570;28;20189;-87
2024/01/24 05:54:49;;;;;;;28.70;25.87;;;10.90;83.40;;;;;;5075447;28;20642;-87
2024/01/24 05:57:15;;;;;;;39.07;29.50;;;10.80;84.10;;;;;;5075323;28;20194;-87
2024/01/24 05:59:40;;;;;;;37.77;28.27;;;10.70;84.30;;;;;;5075218;28;20219;-86
2024/01/24 06:02:06;;;;;;;35.10;28.47;;;10.80;84.10;;;;;;5075603;28;20179;-87
2024/01/24 06:04:31;;;;;;;35.27;29.93;;;10.70;84.70;;;;;;5075164;28;20221;-87
2024/01/24 06:07:00;;;;;;;39.57;29.40;;;10.70;83.30;;;;;;5075352;28;20206;-87
2024/01/24 06:09:29;;;;;;;41.70;30.57;;;10.70;83.80;;;;;;5093091;28;20170;-87
2024/01/24 06:11:54;;;;;;;32.87;28.50;;;10.60;83.90;;;;;;5093328;28;20171;-87
2024/01/24 06:14:20;;;;;;;35.67;30.37;;;10.70;82.50;;;;;;5093755;28;20200;-87
2024/01/24 06:16:45;;;;;;;34.53;29.47;;;10.70;82.60;;;;;;5075210;28;20190;-87
2024/01/24 06:19:11;;;;;;;43.70;30.47;;;10.70;81.60;;;;;;5075157;28;20253;-87
2024/01/24 06:21:37;;;;;;;36.83;28.30;;;10.70;81.70;;;;;;5075006;28;20742;-87
2024/01/24 06:24:05;;;;;;;36.80;30.40;;;10.60;81.20;;;;;;5093036;28;20203;-88
2024/01/24 06:26:30;;;;;;;33.40;28.60;;;10.50;81.70;;;;;;5075067;28;20224;-87
2024/01/24 06:28:56;;;;;;;33.50;29.57;;;10.50;81.60;;;;;;5075147;28;20166;-87
2024/01/24 06:31:22;;;;;;;37.87;31.83;;;10.50;80.90;;;;;;5074996;28;20202;-88
2024/01/24 06:33:50;;;;;;;33.97;22.60;;;10.60;80.80;;;;;;5093068;28;20182;-86
2024/01/24 06:36:16;;;;;;;39.33;22.83;;;10.60;80.40;;;;;;5075099;28;20194;-87
2024/01/24 06:38:42;;;;;;;29.67;22.47;;;10.50;80.80;;;;;;5092977;28;20171;-87
2024/01/24 06:41:07;;;;;;;28.30;23.33;;;10.50;80.90;;;;;;5093044;28;20635;-87
2024/01/24 06:43:35;;;;;;;39.30;23.97;;;10.70;79.00;;;;;;5074928;28;20344;-87
2024/01/24 06:46:02;;;;;;;35.53;23.47;;;10.60;79.80;;;;;;5075299;28;20301;-87
2024/01/24 06:48:28;;;;;;;28.57;22.67;;;10.70;79.40;;;;;;5093086;28;20190;-87
2024/01/24 06:50:54;;;;;;;30.20;22.40;;;10.70;79.00;;;;;;5093164;28;20224;-87
2024/01/24 06:53:20;;;;;;;34.80;22.87;;;10.50;80.00;;;;;;5074967;28;20182;-87
2024/01/24 06:55:46;;;;;;;29.73;23.73;;;10.50;80.00;;;;;;5075097;28;20179;-87
2024/01/24 06:58:11;;;;;;;33.80;23.20;;;10.50;79.50;;;;;;5074899;28;20417;-87
2024/01/24 07:00:37;;;;;;;40.57;24.13;;;10.50;79.90;;;;;;5074833;28;20224;-87
2024/01/24 07:03:03;;;;;;;32.13;23.47;;;10.50;80.20;;;;;;5092892;28;20182;-87
2024/01/24 07:05:28;;;;;;;24.23;21.63;;;10.50;80.40;;;;;;5075463;28;20178;-87
2024/01/24 07:07:55;;;;;;;35.00;22.77;;;10.40;80.50;;;;;;5092714;28;20764;-86
2024/01/24 07:10:21;;;;;;;52.60;21.63;;;10.40;81.30;;;;;;5093212;28;20163;-87
2024/01/24 07:12:47;;;;;;;27.90;21.03;;;10.40;81.80;;;;;;5078480;28;20186;-87
2024/01/24 07:15:14;;;;;;;30.60;19.87;;;10.40;82.10;;;;;;5078287;28;20171;-87
2024/01/24 07:17:40;;;;;;;46.93;21.60;;;10.30;83.30;;;;;;5078445;28;20198;-87
2024/01/24 07:20:06;;;;;;;34.63;21.20;;;10.20;84.20;;;;;;5096367;28;20178;-87
2024/01/24 07:22:31;;;;;;;39.33;22.77;;;10.30;83.40;;;;;;5096245;28;20254;-87
2024/01/24 07:24:57;;;;;;;33.73;20.33;;;10.20;83.50;;;;;;5078233;28;20255;-87
2024/01/24 07:27:22;;;;;;;41.47;21.13;;;10.30;82.80;;;;;;5096605;28;20194;-87
2024/01/24 07:29:49;;;;;;;41.97;22.07;;;10.30;82.90;;;;;;5078051;28;20610;-87
2024/01/24 07:32:15;;;;;;;28.97;20.50;;;10.20;83.10;;;;;;5079228;28;20178;-87
2024/01/24 07:34:41;;;;;;;39.97;21.97;;;10.30;82.70;;;;;;5077976;28;20178;-87
2024/01/24 07:37:07;;;;;;;23.40;20.90;;;10.20;82.60;;;;;;5095982;28;20195;-87
2024/01/24 07:39:33;;;;;;;34.43;21.50;;;10.30;81.30;;;;;;5095859;28;20191;-87
2024/01/24 07:41:59;;;;;;;36.73;22.63;;;10.30;81.80;;;;;;5096433;28;20213;-87
2024/01/24 07:44:24;;;;;;;32.03;21.37;;;10.30;81.00;;;;;;5077891;28;20210;-87
2024/01/24 07:46:50;;;;;;;36.10;22.67;;;10.30;81.20;;;;;;5077717;28;20198;-87
2024/01/24 07:49:15;;;;;;;56.17;24.57;;;10.30;81.30;;;;;;5095623;28;20175;-87
2024/01/24 07:51:41;;;;;;;28.10;20.87;;;10.30;80.90;;;;;;5077599;28;20669;-87
2024/01/24 07:54:07;;;;;;;37.50;21.80;;;10.20;81.10;;;;;;5095818;28;20175;-87
2024/01/24 07:56:32;;;;;;;41.47;23.80;;;10.30;80.60;;;;;;5095648;28;20203;-87
2024/01/24 07:58:58;;;;;;;35.50;23.10;;;10.30;79.90;;;;;;5077614;28;20705;-87
2024/01/24 08:01:24;;;;;;;44.13;25.17;;;10.20;80.40;;;;;;5077510;28;20194;-87
2024/01/24 08:03:50;;;;;;;42.27;26.13;;;10.30;79.60;;;;;;5077935;28;20202;-88
2024/01/24 08:06:16;;;;;;;51.53;25.07;;;10.40;78.60;;;;;;5095883;28;20269;-87
2024/01/24 08:08:41;;;;;;;33.93;25.20;;;10.30;79.20;;;;;;5078775;28;20257;-87
2024/01/24 08:11:07;;;;;;;39.73;24.57;;;10.30;78.30;;;;;;5077592;28;20617;-87
2024/01/24 08:13:32;;;;;;;49.10;25.23;;;10.30;78.50;;;;;;5095832;28;20179;-87
2024/01/24 08:15:58;;;;;;;39.60;25.70;;;10.20;79.00;;;;;;5077079;28;20291;-87
2024/01/24 08:18:24;;;;;;;38.67;25.70;;;10.20;78.80;;;;;;5077200;28;20265;-87
2024/01/24 08:20:52;;;;;;;47.57;25.40;;;10.30;78.40;;;;;;5077192;28;20261;-87
2024/01/24 08:23:18;;;;;;;45.33;26.60;;;10.30;78.00;;;;;;5077115;28;20202;-87
2024/01/24 08:25:44;;;;;;;35.33;25.43;;;10.30;77.10;;;;;;5076984;28;20258;-87
2024/01/24 08:28:09;;;;;;;39.27;24.93;;;10.30;77.90;;;;;;5077057;28;20180;-86
2024/01/24 08:30:35;;;;;;;45.73;25.20;;;10.30;77.00;;;;;;5077776;28;20174;-87
2024/01/24 08:33:00;;;;;;;45.33;26.47;;;10.30;77.70;;;;;;5096003;28;20175;-86
2024/01/24 08:35:26;;;;;;;38.70;26.27;;;10.20;78.20;;;;;;5077401;28;20177;-87
2024/01/24 08:37:51;;;;;;;36.00;25.73;;;10.30;77.30;;;;;;5077273;28;20199;-87
2024/01/24 08:40:17;;;;;;;43.33;24.90;;;10.20;77.90;;;;;;5076718;28;20182;-86
2024/01/24 08:42:44;;;;;;;39.20;25.73;;;10.10;78.00;;;;;;5094944;28;20178;-86
2024/01/24 08:45:10;;;;;;;41.10;25.40;;;10.20;77.10;;;;;;5076919;28;20283;-86
2024/01/24 08:47:36;;;;;;;37.90;25.70;;;10.10;78.00;;;;;;5076772;28;20591;-87
2024/01/24 08:50:04;;;;;;;46.53;27.10;;;10.20;77.20;;;;;;5095004;28;20526;-87
2024/01/24 08:52:31;;;;;;;42.97;26.33;;;10.10;77.60;;;;;;5076615;28;20178;-87
2024/01/24 08:54:56;;;;;;;40.87;27.17;;;10.10;77.20;;;;;;5076594;28;20270;-87
2024/01/24 08:57:22;;;;;;;36.33;27.27;;;10.20;76.70;;;;;;5076713;28;20230;-87
2024/01/24 08:59:47;;;;;;;43.37;27.10;;;10.20;76.80;;;;;;5076471;28;20171;-87
2024/01/24 09:02:13;;;;;;;43.63;25.97;;;10.10;77.30;;;;;;5095022;28;20206;-87
2024/01/24 09:04:40;;;;;;;37.00;26.30;;;10.00;77.40;;;;;;5076467;28;20206;-87
2024/01/24 09:07:05;;;;;;;39.27;26.83;;;10.20;77.00;;;;;;5094998;28;20194;-87
2024/01/24 09:09:33;;;;;;;42.80;27.97;;;10.20;76.80;;;;;;5076527;28;20598;-87
2024/01/24 09:11:59;;;;;;;52.83;27.17;;;10.20;76.80;;;;;;5094781;28;20163;-86
2024/01/24 09:14:25;;;;;;;48.77;25.80;;;10.20;77.40;;;;;;5076494;28;20178;-87
2024/01/24 09:16:51;;;;;;;42.37;26.97;;;10.20;76.80;;;;;;5076239;28;20332;-87
2024/01/24 09:19:16;;;;;;;34.83;25.23;;;10.20;76.90;;;;;;5094274;28;20171;-87
2024/01/24 09:21:42;;;;;;;50.17;26.77;;;10.10;77.40;;;;;;5076003;28;20204;-86
2024/01/24 09:24:07;;;;;;;36.40;24.20;;;10.10;77.00;;;;;;5094191;28;20283;-88
2024/01/24 09:26:33;;;;;;;43.60;25.23;;;10.00;77.10;;;;;;5075775;28;20551;-88
2024/01/24 09:28:58;;;;;;;36.90;24.97;;;10.00;77.60;;;;;;5075867;28;20175;-87
2024/01/24 09:31:24;;;;;;;30.60;25.00;;;10.00;77.70;;;;;;5076061;28;20181;-87
2024/01/24 09:33:50;;;;;;;32.97;23.40;;;10.10;77.40;;;;;;5094206;28;20626;-87
2024/01/24 09:36:15;;;;;;;41.73;25.33;;;9.90;77.80;;;;;;5075861;28;20222;-87
2024/01/24 09:38:44;;;;;;;37.60;24.80;;;10.00;77.70;;;;;;5076022;28;20167;-87
2024/01/24 09:41:19;;;;;;;46.80;26.27;;;9.90;77.80;;;;;;5093918;28;20175;-87
2024/01/24 09:43:47;;;;;;;45.20;26.37;;;9.90;78.20;;;;;;5075648;28;20208;-88
2024/01/24 09:46:18;;;;;;;39.40;26.17;;;10.00;77.00;;;;;;5076058;28;20195;-88
2024/01/24 09:48:45;;;;;;;42.60;26.23;;;10.00;77.10;;;;;;5075678;28;20167;-87
2024/01/24 09:51:11;;;;;;;38.40;26.60;;;10.00;76.70;;;;;;5075746;28;20167;-87
2024/01/24 09:53:39;;;;;;;33.27;25.40;;;9.90;77.20;;;;;;5075998;28;20209;-87
2024/01/24 09:56:06;;;;;;;27.73;24.50;;;9.90;77.30;;;;;;5093368;28;20190;-88
2024/01/24 09:58:31;;;;;;;30.83;25.23;;;9.90;77.50;;;;;;5075630;28;20213;-87
2024/01/24 10:00:59;;;;;;;37.83;26.13;;;9.90;77.60;;;;;;5093998;28;20202;-87
2024/01/24 10:03:26;;;;;;;43.10;25.83;;;10.00;77.80;;;;;;5093366;28;20206;-87
2024/01/24 10:05:53;;;;;;;36.37;26.50;;;10.10;76.80;;;;;;5075171;28;20171;-87
2024/01/24 10:08:18;;;;;;;42.50;26.63;;;10.00;77.10;;;;;;5075315;28;20166;-87
2024/01/24 10:10:45;;;;;;;34.97;26.03;;;10.20;76.30;;;;;;5075477;28;20553;-87
2024/01/24 10:13:11;;;;;;;30.93;24.23;;;10.20;76.10;;;;;;5075632;28;20261;-87
2024/01/24 10:15:37;;;;;;;39.43;25.37;;;10.00;77.50;;;;;;5075314;28;20669;-87
2024/01/24 10:18:04;;;;;;;35.87;24.33;;;10.00;77.50;;;;;;5075566;28;20530;-87
2024/01/24 10:20:29;;;;;;;53.67;27.53;;;10.00;77.10;;;;;;5093545;28;20175;-88
2024/01/24 10:22:55;;;;;;;53.40;35.20;;;9.90;77.60;;;;;;5075127;28;20224;-88
2024/01/24 10:25:21;;;;;;;49.37;37.80;;;9.90;77.30;;;;;;5075037;28;20209;-88
2024/01/24 10:27:47;;;;;;;50.63;36.50;;;9.90;77.70;;;;;;5075174;28;20720;-88
2024/01/24 10:30:15;;;;;;;54.23;37.80;;;9.80;77.70;;;;;;5075173;28;20170;-88
2024/01/24 10:32:48;;;;;;;46.87;38.17;;;9.90;77.00;;;;;;5075196;28;20170;-88
2024/01/24 10:35:14;;;;;;;48.33;38.37;;;9.90;77.50;;;;;;5075016;28;20179;-88
2024/01/24 10:37:41;;;;;;;40.70;36.33;;;9.90;77.30;;;;;;5074878;28;20237;-87
2024/01/24 10:40:11;;;;;;;50.67;37.83;;;9.80;77.80;;;;;;5093050;28;20548;-87
2024/01/24 10:42:40;;;;;;;46.60;38.47;;;10.00;77.00;;;;;;5075795;28;20175;-87
2024/01/24 10:45:06;;;;;;;46.47;39.57;;;9.90;77.90;;;;;;5074815;28;20568;-88
2024/01/24 10:47:33;;;;;;;49.30;39.70;;;9.80;78.50;;;;;;5096913;28;20194;-87
2024/01/24 10:50:03;;;;;;;51.60;37.27;;;9.90;77.50;;;;;;5097118;28;20245;-87
2024/01/24 10:52:29;;;;;;;40.83;36.53;;;9.90;77.20;;;;;;5097351;28;20151;-87
2024/01/24 10:54:58;;;;;;;42.67;38.33;;;9.80;77.90;;;;;;5079234;28;20271;-87
2024/01/24 10:57:28;;;;;;;62.50;38.63;;;9.80;77.70;;;;;;5096751;28;20182;-87
2024/01/24 10:59:56;;;;;;;30.47;23.93;;;9.80;78.50;;;;;;5098957;28;20157;-87
2024/01/24 11:02:22;;;;;;;39.77;24.87;;;9.70;78.90;;;;;;5083054;28;20673;-87
2024/01/24 11:04:50;;;;;;;27.60;23.03;;;9.70;78.60;;;;;;5081030;28;20203;-87
2024/01/24 11:07:24;;;;;;;42.30;25.03;;;9.80;77.70;;;;;;5080160;28;20224;-88
2024/01/24 11:10:05;;;;;;;45.07;27.57;;;9.80;77.70;;;;;;5081135;28;20170;-88
2024/01/24 11:12:31;;;;;;;26.80;23.47;;;9.80;77.70;;;;;;5079910;28;20178;-88
2024/01/24 11:15:06;;;;;;;39.87;25.93;;;9.90;77.10;;;;;;5080298;28;20175;-87
2024/01/24 11:17:35;;;;;;;33.40;26.37;;;9.80;77.40;;;;;;5081530;28;20217;-87
2024/01/24 11:20:06;;;;;;;41.53;25.87;;;9.80;77.90;;;;;;5098427;28;20673;-88
2024/01/24 11:22:31;;;;;;;54.87;25.67;;;9.60;79.50;;;;;;5080367;28;20171;-87
2024/01/24 11:24:58;;;;;;;41.47;24.20;;;9.50;80.20;;;;;;5081254;28;20213;-88
2024/01/24 11:27:36;;;;;;;42.03;22.33;;;9.30;81.60;;;;;;5080057;28;20232;-88
2024/01/24 11:30:17;;;;;;;48.20;21.80;;;9.30;82.50;;;;;;5080820;28;20171;-90
2024/01/24 11:32:51;;;;;;;44.13;21.93;;;9.20;83.20;;;;;;5080329;28;20257;-88
2024/01/24 11:35:34;;;;;;;46.57;21.90;;;9.10;83.80;;;;;;5081154;28;20171;-88
2024/01/24 11:38:27;;;;;;;35.53;20.63;;;9.10;83.60;;;;;;5081365;28;20661;-87
2024/01/24 11:41:16;;;;;;;41.70;21.10;;;9.00;84.10;;;;;;5080363;28;20261;-88
2024/01/24 11:43:45;;;;;;;46.23;20.87;;;9.00;84.10;;;;;;5079389;28;20210;-89
2024/01/24 11:46:11;;;;;;;36.20;21.47;;;9.10;83.50;;;;;;5080496;28;20191;-87
2024/01/24 11:48:37;;;;;;;37.10;23.37;;;9.20;82.20;;;;;;5080274;28;20269;-88
2024/01/24 11:51:05;;;;;;;41.00;22.37;;;9.30;81.50;;;;;;5080375;28;20197;-87
2024/01/24 11:53:31;;;;;;;41.93;23.57;;;9.30;80.90;;;;;;5080393;28;20174;-87
2024/01/24 11:56:10;;;;;;;48.50;25.03;;;9.40;80.50;;;;;;5079445;28;20205;-87
2024/01/24 11:58:35;;;;;;;39.57;24.33;;;9.40;80.40;;;;;;5079200;28;20182;-88
2024/01/24 12:01:05;;;;;;;46.93;22.93;;;9.30;81.00;;;;;;5079311;28;20179;-88
2024/01/24 12:03:31;;;;;;;43.20;24.60;;;9.40;80.70;;;;;;5079396;28;20769;-89
2024/01/24 12:05:59;;;;;;;40.40;23.43;;;9.40;80.60;;;;;;5079679;28;20230;-88
2024/01/24 12:08:25;;;;;;;49.17;26.53;;;9.40;80.30;;;;;;5079544;28;20210;-88
2024/01/24 12:10:50;;;;;;;40.57;24.93;;;9.40;80.40;;;;;;5079587;28;20696;-88
2024/01/24 12:13:18;;;;;;;47.97;26.63;;;9.40;80.00;;;;;;5079293;28;20262;-88
2024/01/24 12:15:45;;;;;;;51.03;26.10;;;9.50;79.10;;;;;;5078747;28;20171;-87
2024/01/24 12:18:18;;;;;;;53.67;26.43;;;9.50;79.60;;;;;;5097238;28;20171;-88
2024/01/24 12:20:49;;;;;;;54.43;25.80;;;9.50;79.40;;;;;;5078897;28;20189;-88
2024/01/24 12:23:15;;;;;;;43.60;25.50;;;9.40;79.70;;;;;;5078920;28;20182;-87
2024/01/24 12:25:42;;;;;;;33.63;26.50;;;9.50;79.20;;;;;;5078846;28;20170;-88
2024/01/24 12:28:08;;;;;;;49.63;25.33;;;9.50;78.90;;;;;;5078179;28;20631;-88
2024/01/24 12:30:35;;;;;;;45.50;24.93;;;9.50;79.10;;;;;;5077973;28;20206;-88
2024/01/24 12:33:03;;;;;;;51.53;26.13;;;9.50;79.30;;;;;;5078532;28;20179;-87